Terminal Aerodrome Forecast
Issued by NWS

Home | Current Version | Previous Version | Graphics & Text | Print | Product List | Glossary On
Versions: 1 2 3 4 5 6 7 8 9 10 11 12 13 14
000
FTUS43 KGRB 232333
TAFAUW
TAF
KAUW 232333Z 2400/2424 23005KT P6SM SCT050 BKN250
     FM240100 20004KT P6SM BKN250
     FM241600 19009KT P6SM SCT035 BKN150=

USA.gov is the U.S. government's official web portal to all federal, state and local government web resources and services.